Time;durP1;ratioP1;P1;durP2;ratioP2;P2;SDS_P1;SDS_P2;PMS_P1;PMS_P2;Temp;Humidity;BMP_temperature;BMP_pressure;BME280_temperature;BME280_humidity;BME280_pressure;Samples;Min_cycle;Max_cycle;Signal;HPM_P1;HPM_P2
2022/05/17 00:00:11;;;;;;;11.13;10.02;;;;;;;;;;528691;28;859;-82
2022/05/17 00:00:26;;;;;;;12.30;10.73;;;;;;;;;;528435;28;1910;-82
2022/05/17 00:00:41;;;;;;;12.73;11.33;;;;;;;;;;529389;27;1640;-82
2022/05/17 00:00:57;;;;;;;12.50;11.20;;;;;;;;;;530848;27;863;-82
2022/05/17 00:01:13;;;;;;;11.83;10.63;;;;;;;;;;530717;27;842;-82
2022/05/17 00:01:29;;;;;;;11.80;10.60;;;;;;;;;;530841;27;831;-82
2022/05/17 00:01:44;;;;;;;11.90;10.70;;;;;;;;;;530854;27;788;-82
2022/05/17 00:01:59;;;;;;;11.55;10.38;;;;;;;;;;530681;27;1162;-82
2022/05/17 00:02:15;;;;;;;11.33;10.23;;;;;;;;;;530812;27;961;-82
2022/05/17 00:02:30;;;;;;;12.53;10.90;;;;;;;;;;528537;28;816;-82
2022/05/17 00:02:45;;;;;;;14.07;11.10;;;;;;;;;;528316;28;1544;-82
2022/05/17 00:03:02;;;;;;;12.50;10.90;;;;;;;;;;525909;28;1435;-82
2022/05/17 00:03:17;;;;;;;12.48;10.60;;;;;;;;;;524374;28;1296;-82
2022/05/17 00:03:34;;;;;;;12.32;10.63;;;;;;;;;;522121;28;1143;-82
2022/05/17 00:03:50;;;;;;;11.75;10.50;;;;;;;;;;520078;28;1273;-82
2022/05/17 00:04:05;;;;;;;11.97;10.67;;;;;;;;;;521794;28;978;-82
2022/05/17 00:04:21;;;;;;;13.15;10.85;;;;;;;;;;522666;28;1272;-82
2022/05/17 00:04:36;;;;;;;13.20;10.73;;;;;;;;;;524370;28;796;-81
2022/05/17 00:04:51;;;;;;;12.03;10.77;;;;;;;;;;523760;28;1751;-81
2022/05/17 00:05:08;;;;;;;11.73;10.48;;;;;;;;;;522386;28;1396;-81
2022/05/17 00:05:23;;;;;;;13.55;10.90;;;;;;;;;;523625;28;1627;-81
2022/05/17 00:05:38;;;;;;;12.63;11.23;;;;;;;;;;525139;28;1619;-81
2022/05/17 00:05:54;;;;;;;13.23;11.30;;;;;;;;;;528711;28;898;-82
2022/05/17 00:06:09;;;;;;;14.07;11.23;;;;;;;;;;529043;28;959;-81
2022/05/17 00:06:26;;;;;;;14.00;11.87;;;;;;;;;;530450;27;1553;-81
2022/05/17 00:06:42;;;;;;;15.50;12.60;;;;;;;;;;528221;28;1487;-81
2022/05/17 00:06:57;;;;;;;14.23;12.05;;;;;;;;;;528551;28;1522;-82
2022/05/17 00:07:12;;;;;;;12.80;11.40;;;;;;;;;;530589;27;930;-82
2022/05/17 00:07:28;;;;;;;12.50;11.20;;;;;;;;;;527943;28;1518;-81
2022/05/17 00:07:43;;;;;;;13.00;11.70;;;;;;;;;;526367;28;1228;-81
2022/05/17 00:07:59;;;;;;;12.93;11.57;;;;;;;;;;524135;28;1183;-81
2022/05/17 00:08:15;;;;;;;13.33;11.20;;;;;;;;;;522173;28;1324;-81
2022/05/17 00:08:31;;;;;;;14.07;11.68;;;;;;;;;;520369;28;1430;-81
2022/05/17 00:08:46;;;;;;;13.43;11.63;;;;;;;;;;520057;28;1304;-82
2022/05/17 00:09:02;;;;;;;13.77;11.38;;;;;;;;;;519629;28;1517;-82
2022/05/17 00:09:18;;;;;;;14.05;11.70;;;;;;;;;;520026;28;1464;-82
2022/05/17 00:09:33;;;;;;;13.87;11.70;;;;;;;;;;520369;28;2092;-81
2022/05/17 00:09:48;;;;;;;14.45;12.00;;;;;;;;;;521309;28;1361;-81
2022/05/17 00:10:05;;;;;;;13.70;11.83;;;;;;;;;;523282;28;955;-81
2022/05/17 00:10:21;;;;;;;12.85;11.30;;;;;;;;;;522264;28;1497;-81
2022/05/17 00:10:37;;;;;;;13.45;11.55;;;;;;;;;;526397;28;867;-81
2022/05/17 00:10:53;;;;;;;12.95;11.50;;;;;;;;;;526929;28;949;-81
2022/05/17 00:11:10;;;;;;;12.77;11.47;;;;;;;;;;527139;28;990;-81
2022/05/17 00:11:28;;;;;;;13.30;11.35;;;;;;;;;;526382;28;1358;-82
2022/05/17 00:11:44;;;;;;;14.15;11.40;;;;;;;;;;524254;28;1265;-82
2022/05/17 00:11:59;;;;;;;13.75;11.73;;;;;;;;;;526312;28;950;-82
2022/05/17 00:12:15;;;;;;;13.73;12.10;;;;;;;;;;527800;28;863;-82
2022/05/17 00:12:30;;;;;;;14.70;12.00;;;;;;;;;;526495;28;1158;-82
2022/05/17 00:12:46;;;;;;;15.27;11.90;;;;;;;;;;526107;28;1731;-82
2022/05/17 00:13:01;;;;;;;15.33;12.20;;;;;;;;;;526569;28;887;-82
2022/05/17 00:13:16;;;;;;;13.73;11.87;;;;;;;;;;524351;28;1445;-81
2022/05/17 00:13:32;;;;;;;13.38;11.93;;;;;;;;;;524309;28;1265;-81
2022/05/17 00:13:47;;;;;;;13.47;12.07;;;;;;;;;;524123;28;1311;-81
2022/05/17 00:14:04;;;;;;;13.15;11.75;;;;;;;;;;522238;28;1277;-81
2022/05/17 00:14:20;;;;;;;13.07;11.70;;;;;;;;;;522580;28;851;-81
2022/05/17 00:14:35;;;;;;;13.67;12.27;;;;;;;;;;525616;28;1476;-81
2022/05/17 00:14:50;;;;;;;13.38;11.85;;;;;;;;;;524150;28;1278;-81
2022/05/17 00:15:06;;;;;;;14.23;12.10;;;;;;;;;;524335;28;879;-81
2022/05/17 00:15:22;;;;;;;13.63;11.90;;;;;;;;;;524721;28;1090;-81
2022/05/17 00:15:45;;;;;;;13.07;11.67;;;;;;;;;;526099;28;1483;-81
2022/05/17 00:16:01;;;;;;;13.27;11.88;;;;;;;;;;527908;28;820;-81
2022/05/17 00:16:16;;;;;;;13.25;11.80;;;;;;;;;;528165;28;1526;-81
2022/05/17 00:16:32;;;;;;;13.98;12.05;;;;;;;;;;529542;27;1403;-81
2022/05/17 00:16:47;;;;;;;14.60;12.20;;;;;;;;;;530551;27;870;-81
2022/05/17 00:17:04;;;;;;;14.18;12.35;;;;;;;;;;530557;27;1580;-81
2022/05/17 00:17:19;;;;;;;14.27;12.77;;;;;;;;;;530848;27;938;-82
2022/05/17 00:17:35;;;;;;;15.32;12.68;;;;;;;;;;530694;27;1560;-82
2022/05/17 00:17:53;;;;;;;13.85;12.15;;;;;;;;;;530750;27;1080;-82
2022/05/17 00:18:12;;;;;;;14.80;12.75;;;;;;;;;;527882;28;1308;-81
2022/05/17 00:18:28;;;;;;;15.02;13.30;;;;;;;;;;528109;28;1464;-81
2022/05/17 00:18:44;;;;;;;14.48;12.90;;;;;;;;;;528533;28;990;-81
2022/05/17 00:18:59;;;;;;;13.63;11.97;;;;;;;;;;528618;28;709;-81
2022/05/17 00:19:16;;;;;;;13.23;11.60;;;;;;;;;;528714;28;974;-81
2022/05/17 00:19:32;;;;;;;13.32;11.75;;;;;;;;;;527111;28;1366;-82
2022/05/17 00:19:47;;;;;;;14.07;11.80;;;;;;;;;;528498;28;1189;-82
2022/05/17 00:20:03;;;;;;;14.90;11.70;;;;;;;;;;528432;28;1197;-82
2022/05/17 00:20:19;;;;;;;13.00;11.30;;;;;;;;;;525957;28;1411;-82
2022/05/17 00:20:34;;;;;;;12.83;11.53;;;;;;;;;;524292;28;1973;-82
2022/05/17 00:20:50;;;;;;;13.77;11.60;;;;;;;;;;524486;28;947;-82
2022/05/17 00:21:06;;;;;;;14.70;11.50;;;;;;;;;;523951;28;1508;-82
2022/05/17 00:21:22;;;;;;;13.75;11.50;;;;;;;;;;524619;28;1546;-82
2022/05/17 00:21:38;;;;;;;13.50;11.67;;;;;;;;;;524118;28;1492;-82
2022/05/17 00:21:53;;;;;;;12.75;11.45;;;;;;;;;;524179;28;1450;-82
2022/05/17 00:22:09;;;;;;;12.88;11.48;;;;;;;;;;524416;28;1640;-82
2022/05/17 00:22:24;;;;;;;14.03;11.70;;;;;;;;;;524822;28;1166;-82
2022/05/17 00:22:40;;;;;;;14.50;11.80;;;;;;;;;;525480;28;1616;-82
2022/05/17 00:22:56;;;;;;;13.77;11.85;;;;;;;;;;525695;28;895;-82
2022/05/17 00:23:14;;;;;;;13.47;11.80;;;;;;;;;;527075;28;1555;-82
2022/05/17 00:23:29;;;;;;;15.38;11.95;;;;;;;;;;527606;28;1624;-81
2022/05/17 00:23:45;;;;;;;15.97;12.10;;;;;;;;;;526357;28;1342;-81
2022/05/17 00:24:01;;;;;;;15.45;12.57;;;;;;;;;;526028;28;1627;-81
2022/05/17 00:24:18;;;;;;;15.43;12.68;;;;;;;;;;527293;28;859;-81
2022/05/17 00:24:34;;;;;;;13.68;12.02;;;;;;;;;;526017;28;1487;-81
2022/05/17 00:24:49;;;;;;;14.13;12.20;;;;;;;;;;526344;28;966;-81
2022/05/17 00:25:06;;;;;;;14.17;12.07;;;;;;;;;;526161;28;1352;-81
2022/05/17 00:25:23;;;;;;;13.57;12.05;;;;;;;;;;524384;28;998;-81
2022/05/17 00:25:39;;;;;;;15.20;12.48;;;;;;;;;;525974;28;1520;-81
2022/05/17 00:25:55;;;;;;;16.73;12.88;;;;;;;;;;528492;28;918;-81
2022/05/17 00:26:11;;;;;;;15.77;12.90;;;;;;;;;;528168;28;1558;-81
2022/05/17 00:26:26;;;;;;;15.15;13.10;;;;;;;;;;526420;28;1270;-81
2022/05/17 00:26:42;;;;;;;15.10;12.90;;;;;;;;;;527839;28;879;-81
2022/05/17 00:26:57;;;;;;;14.67;12.83;;;;;;;;;;529625;27;815;-81
2022/05/17 00:27:13;;;;;;;17.63;13.35;;;;;;;;;;528446;28;1468;-81
2022/05/17 00:27:28;;;;;;;17.87;13.20;;;;;;;;;;528554;28;1546;-81
2022/05/17 00:27:44;;;;;;;14.38;12.48;;;;;;;;;;528125;28;1909;-81
2022/05/17 00:28:00;;;;;;;15.10;12.77;;;;;;;;;;526561;28;1444;-81
2022/05/17 00:28:19;;;;;;;15.15;13.35;;;;;;;;;;528328;28;1397;-82
2022/05/17 00:28:38;;;;;;;13.93;12.52;;;;;;;;;;528387;28;981;-82
2022/05/17 00:28:53;;;;;;;13.90;12.43;;;;;;;;;;530443;27;847;-82
2022/05/17 00:29:09;;;;;;;17.83;13.40;;;;;;;;;;530061;27;1525;-82
2022/05/17 00:29:25;;;;;;;17.03;13.77;;;;;;;;;;530150;27;1545;-82
2022/05/17 00:29:40;;;;;;;15.60;13.85;;;;;;;;;;529863;27;1480;-82
2022/05/17 00:29:56;;;;;;;17.38;13.65;;;;;;;;;;530532;27;804;-82
2022/05/17 00:30:12;;;;;;;16.37;12.90;;;;;;;;;;530561;27;835;-82
2022/05/17 00:30:28;;;;;;;15.43;13.50;;;;;;;;;;530616;27;2014;-82
2022/05/17 00:30:43;;;;;;;16.30;13.70;;;;;;;;;;530530;27;1452;-82
2022/05/17 00:31:00;;;;;;;15.53;13.17;;;;;;;;;;528417;28;1543;-82
2022/05/17 00:31:15;;;;;;;15.30;13.48;;;;;;;;;;528142;28;1593;-82
2022/05/17 00:31:31;;;;;;;15.65;13.88;;;;;;;;;;528470;28;919;-82
2022/05/17 00:31:47;;;;;;;16.27;13.93;;;;;;;;;;526490;28;1312;-82
2022/05/17 00:32:03;;;;;;;18.73;14.23;;;;;;;;;;526120;28;1665;-82
2022/05/17 00:32:19;;;;;;;19.05;14.13;;;;;;;;;;526296;28;1047;-82
2022/05/17 00:32:34;;;;;;;17.03;13.80;;;;;;;;;;526999;28;1169;-82
2022/05/17 00:32:49;;;;;;;15.45;13.75;;;;;;;;;;526396;28;1139;-82
2022/05/17 00:33:05;;;;;;;15.40;13.80;;;;;;;;;;524002;28;1830;-82
2022/05/17 00:33:23;;;;;;;15.37;13.80;;;;;;;;;;524205;28;1334;-82
2022/05/17 00:33:38;;;;;;;15.73;14.02;;;;;;;;;;524296;28;1583;-82
2022/05/17 00:33:54;;;;;;;15.38;13.75;;;;;;;;;;526337;28;874;-82
2022/05/17 00:34:09;;;;;;;14.97;13.33;;;;;;;;;;525779;28;1380;-82
2022/05/17 00:34:25;;;;;;;15.60;13.88;;;;;;;;;;525971;28;879;-82
2022/05/17 00:34:40;;;;;;;15.55;13.88;;;;;;;;;;526813;28;1293;-82
2022/05/17 00:34:56;;;;;;;15.63;13.93;;;;;;;;;;529174;27;994;-82
2022/05/17 00:35:11;;;;;;;16.27;14.53;;;;;;;;;;528396;28;1311;-82
2022/05/17 00:35:27;;;;;;;15.63;13.93;;;;;;;;;;528117;28;1748;-82
2022/05/17 00:35:45;;;;;;;15.43;13.68;;;;;;;;;;528341;28;1255;-82
2022/05/17 00:36:01;;;;;;;15.30;13.70;;;;;;;;;;528567;28;926;-82
2022/05/17 00:36:16;;;;;;;15.93;14.27;;;;;;;;;;527501;28;1675;-82
2022/05/17 00:36:33;;;;;;;16.13;14.45;;;;;;;;;;526919;27;1676;-81
2022/05/17 00:36:48;;;;;;;17.08;14.20;;;;;;;;;;529447;27;1037;-81
2022/05/17 00:37:04;;;;;;;18.58;14.55;;;;;;;;;;531129;27;891;-81
2022/05/17 00:37:20;;;;;;;18.37;14.80;;;;;;;;;;530697;27;942;-81
2022/05/17 00:37:36;;;;;;;16.38;14.57;;;;;;;;;;531041;27;1518;-81
2022/05/17 00:37:51;;;;;;;17.65;14.65;;;;;;;;;;529451;27;1229;-81
2022/05/17 00:38:07;;;;;;;18.17;14.57;;;;;;;;;;528738;27;1300;-81
2022/05/17 00:38:22;;;;;;;17.77;14.60;;;;;;;;;;526164;28;1881;-81
2022/05/17 00:38:38;;;;;;;19.83;15.30;;;;;;;;;;523928;28;1807;-81
2022/05/17 00:38:53;;;;;;;18.60;15.10;;;;;;;;;;524260;28;1427;-82
2022/05/17 00:39:08;;;;;;;18.47;14.63;;;;;;;;;;524427;28;843;-82
2022/05/17 00:39:24;;;;;;;17.92;14.63;;;;;;;;;;521792;28;1563;-82
2022/05/17 00:39:39;;;;;;;17.17;14.77;;;;;;;;;;522502;28;888;-81
2022/05/17 00:39:54;;;;;;;17.52;14.45;;;;;;;;;;521938;28;1399;-81
2022/05/17 00:40:12;;;;;;;18.70;14.80;;;;;;;;;;521873;28;1394;-81
2022/05/17 00:40:27;;;;;;;18.35;14.75;;;;;;;;;;520561;28;1973;-81
2022/05/17 00:40:43;;;;;;;16.25;14.35;;;;;;;;;;522436;28;1561;-81
2022/05/17 00:40:58;;;;;;;16.47;14.73;;;;;;;;;;522193;28;1235;-81
2022/05/17 00:41:14;;;;;;;16.75;14.80;;;;;;;;;;519778;28;1525;-81
2022/05/17 00:41:29;;;;;;;16.83;14.50;;;;;;;;;;520685;28;816;-81
2022/05/17 00:41:45;;;;;;;16.73;14.93;;;;;;;;;;521363;28;1601;-81
2022/05/17 00:42:00;;;;;;;17.30;14.70;;;;;;;;;;524599;28;1473;-81
2022/05/17 00:42:15;;;;;;;17.73;14.20;;;;;;;;;;525430;28;1468;-81
2022/05/17 00:42:31;;;;;;;17.05;14.38;;;;;;;;;;526299;28;852;-81
2022/05/17 00:42:46;;;;;;;15.77;14.03;;;;;;;;;;527928;27;1849;-81
2022/05/17 00:43:01;;;;;;;15.38;13.77;;;;;;;;;;528563;27;1249;-81
2022/05/17 00:44:46;;;;;;;18.00;13.68;;;;;;;;;;528579;28;674;-81
2022/05/17 00:45:02;;;;;;;19.37;14.17;;;;;;;;;;530051;27;1633;-81
2022/05/17 00:45:17;;;;;;;18.83;14.50;;;;;;;;;;530305;27;1428;-81
2022/05/17 00:45:33;;;;;;;17.57;14.40;;;;;;;;;;530626;27;934;-81
2022/05/17 00:45:50;;;;;;;16.23;13.98;;;;;;;;;;530164;27;1462;-81
2022/05/17 00:46:05;;;;;;;15.70;13.55;;;;;;;;;;528404;28;1398;-81
2022/05/17 00:46:28;;;;;;;14.73;13.23;;;;;;;;;;528527;28;1014;-81
2022/05/17 00:46:43;;;;;;;14.93;13.40;;;;;;;;;;528345;28;918;-81
2022/05/17 00:47:05;;;;;;;15.05;13.30;;;;;;;;;;528483;28;1163;-81
2022/05/17 00:47:31;;;;;;;15.80;12.70;;;;;;;;;;530380;27;1254;-81
2022/05/17 00:47:53;;;;;;;15.07;12.73;;;;;;;;;;526911;28;1417;-81
2022/05/17 00:48:08;;;;;;;14.60;13.10;;;;;;;;;;527891;28;1420;-81
2022/05/17 00:48:27;;;;;;;15.27;13.00;;;;;;;;;;528492;28;1291;-81
2022/05/17 00:48:42;;;;;;;17.08;13.32;;;;;;;;;;528601;28;847;-81
2022/05/17 00:48:58;;;;;;;16.77;13.93;;;;;;;;;;524504;28;1162;-81
2022/05/17 00:49:37;;;;;;;15.98;13.65;;;;;;;;;;524303;28;1104;-81
2022/05/17 00:50:28;;;;;;;16.80;13.68;;;;;;;;;;526373;28;923;-81
2022/05/17 00:50:47;;;;;;;14.90;13.30;;;;;;;;;;529532;27;839;-81
2022/05/17 00:51:03;;;;;;;14.63;13.18;;;;;;;;;;530881;27;917;-81
2022/05/17 00:51:21;;;;;;;15.30;13.70;;;;;;;;;;530677;27;1154;-81
2022/05/17 00:51:38;;;;;;;15.43;13.80;;;;;;;;;;528345;28;1231;-81
2022/05/17 00:51:58;;;;;;;14.95;13.35;;;;;;;;;;528635;28;863;-81
2022/05/17 00:52:26;;;;;;;14.63;13.13;;;;;;;;;;528667;28;1028;-81
2022/05/17 00:52:47;;;;;;;17.73;14.25;;;;;;;;;;528442;28;878;-81
2022/05/17 00:53:17;;;;;;;15.35;13.77;;;;;;;;;;528388;28;1034;-81
2022/05/17 00:53:34;;;;;;;14.82;13.32;;;;;;;;;;529385;27;1631;-81
2022/05/17 00:53:51;;;;;;;15.32;13.70;;;;;;;;;;530334;27;1756;-81
2022/05/17 00:54:09;;;;;;;14.98;13.38;;;;;;;;;;530106;27;1600;-81
2022/05/17 00:54:25;;;;;;;14.32;12.93;;;;;;;;;;526462;28;1306;-81
2022/05/17 00:54:43;;;;;;;14.57;13.07;;;;;;;;;;524024;28;1575;-81
2022/05/17 00:55:06;;;;;;;14.40;12.90;;;;;;;;;;522151;28;1250;-81
2022/05/17 00:55:28;;;;;;;14.38;12.93;;;;;;;;;;522358;28;958;-81
2022/05/17 00:55:49;;;;;;;15.05;13.27;;;;;;;;;;522683;28;1497;-81
2022/05/17 00:56:12;;;;;;;15.55;13.52;;;;;;;;;;524437;28;1118;-81
2022/05/17 00:56:30;;;;;;;14.70;13.18;;;;;;;;;;526250;28;1475;-81
2022/05/17 00:57:04;;;;;;;14.48;12.98;;;;;;;;;;527391;27;1495;-81
2022/05/17 00:57:31;;;;;;;14.82;13.32;;;;;;;;;;528086;28;1591;-81
2022/05/17 00:57:56;;;;;;;15.30;13.70;;;;;;;;;;526306;28;923;-81
2022/05/17 00:58:26;;;;;;;14.57;13.07;;;;;;;;;;526386;28;851;-81
2022/05/17 00:58:46;;;;;;;14.68;13.13;;;;;;;;;;525461;28;1543;-81
2022/05/17 00:59:02;;;;;;;15.70;13.82;;;;;;;;;;525619;28;1575;-81
2022/05/17 00:59:18;;;;;;;14.73;13.07;;;;;;;;;;525750;28;1442;-81
2022/05/17 00:59:36;;;;;;;13.90;12.50;;;;;;;;;;525974;28;1428;-82
2022/05/17 00:59:55;;;;;;;14.55;13.15;;;;;;;;;;525393;28;1595;-82
2022/05/17 01:00:13;;;;;;;15.57;13.88;;;;;;;;;;526143;28;1109;-82
2022/05/17 01:00:33;;;;;;;14.75;13.25;;;;;;;;;;523546;28;1918;-81
2022/05/17 01:01:02;;;;;;;14.45;13.05;;;;;;;;;;521979;28;1250;-81
2022/05/17 01:01:23;;;;;;;15.07;13.23;;;;;;;;;;524020;28;879;-81
2022/05/17 01:01:39;;;;;;;14.20;12.80;;;;;;;;;;522306;28;932;-81
2022/05/17 01:01:55;;;;;;;14.47;13.07;;;;;;;;;;522252;28;1198;-81
2022/05/17 01:02:11;;;;;;;14.50;13.15;;;;;;;;;;522261;28;951;-81
2022/05/17 01:02:28;;;;;;;14.63;13.13;;;;;;;;;;523866;28;1035;-81
2022/05/17 01:02:49;;;;;;;16.80;13.30;;;;;;;;;;525514;28;1021;-81
2022/05/17 01:03:09;;;;;;;15.88;13.43;;;;;;;;;;526431;28;891;-81
2022/05/17 01:03:25;;;;;;;14.73;13.23;;;;;;;;;;528087;28;947;-81
2022/05/17 01:03:45;;;;;;;14.70;13.23;;;;;;;;;;528007;28;1506;-81
2022/05/17 01:04:15;;;;;;;15.10;13.60;;;;;;;;;;528626;28;919;-81
2022/05/17 01:04:30;;;;;;;14.68;13.20;;;;;;;;;;530680;27;812;-81
2022/05/17 01:04:46;;;;;;;14.20;12.80;;;;;;;;;;528097;28;1142;-81
2022/05/17 01:05:04;;;;;;;14.73;13.23;;;;;;;;;;528013;28;1590;-81
2022/05/17 01:05:23;;;;;;;14.73;13.13;;;;;;;;;;528130;28;1031;-81
2022/05/17 01:05:44;;;;;;;15.88;14.13;;;;;;;;;;529349;27;1609;-81
2022/05/17 01:06:01;;;;;;;14.63;13.15;;;;;;;;;;529301;27;1411;-81
2022/05/17 01:06:18;;;;;;;13.77;12.48;;;;;;;;;;530477;27;1029;-81
2022/05/17 01:06:42;;;;;;;14.02;12.63;;;;;;;;;;530024;27;2328;-81
2022/05/17 01:07:02;;;;;;;14.18;12.75;;;;;;;;;;528673;28;847;-81
2022/05/17 01:07:21;;;;;;;13.70;12.30;;;;;;;;;;528462;28;1197;-81
2022/05/17 01:07:42;;;;;;;14.43;12.70;;;;;;;;;;526989;28;1362;-81
2022/05/17 01:07:59;;;;;;;15.35;13.48;;;;;;;;;;528559;28;912;-81
2022/05/17 01:08:17;;;;;;;14.77;13.20;;;;;;;;;;526352;28;1253;-81
2022/05/17 01:08:33;;;;;;;14.05;12.57;;;;;;;;;;527160;28;1187;-81
2022/05/17 01:08:48;;;;;;;13.37;12.07;;;;;;;;;;526342;28;1404;-81
2022/05/17 01:09:04;;;;;;;13.37;12.07;;;;;;;;;;528030;28;1401;-81
2022/05/17 01:09:22;;;;;;;13.90;12.55;;;;;;;;;;524975;28;1613;-81
2022/05/17 01:09:38;;;;;;;14.18;12.77;;;;;;;;;;528257;28;1315;-81
2022/05/17 01:09:53;;;;;;;14.17;12.77;;;;;;;;;;524366;28;1489;-81
2022/05/17 01:10:11;;;;;;;13.95;12.55;;;;;;;;;;526091;28;1479;-81
2022/05/17 01:10:28;;;;;;;13.85;12.45;;;;;;;;;;528287;28;1330;-81
2022/05/17 01:10:43;;;;;;;14.77;13.23;;;;;;;;;;526763;28;787;-81
2022/05/17 01:10:59;;;;;;;14.88;13.35;;;;;;;;;;526413;28;1519;-81
2022/05/17 01:11:15;;;;;;;14.20;12.80;;;;;;;;;;527194;28;792;-81
2022/05/17 01:11:31;;;;;;;13.50;12.18;;;;;;;;;;526396;28;856;-81
2022/05/17 01:11:46;;;;;;;13.35;12.05;;;;;;;;;;527266;28;1593;-82
2022/05/17 01:12:02;;;;;;;14.00;12.60;;;;;;;;;;530503;27;1903;-82
2022/05/17 01:12:17;;;;;;;14.60;13.10;;;;;;;;;;530724;27;859;-82
2022/05/17 01:12:35;;;;;;;14.60;13.10;;;;;;;;;;530665;27;1399;-81
2022/05/17 01:15:12;;;;;;;14.50;13.10;;;;;;;;;;529242;27;1446;-81
2022/05/17 01:15:28;;;;;;;14.77;13.30;;;;;;;;;;530659;27;893;-81
2022/05/17 01:15:44;;;;;;;14.63;13.13;;;;;;;;;;530041;27;1561;-81
2022/05/17 01:15:59;;;;;;;15.57;13.20;;;;;;;;;;530310;27;830;-81
2022/05/17 01:16:14;;;;;;;15.93;13.03;;;;;;;;;;529745;27;1627;-81
2022/05/17 01:16:30;;;;;;;14.02;12.52;;;;;;;;;;529964;27;1466;-81
2022/05/17 01:16:46;;;;;;;14.63;13.00;;;;;;;;;;530295;27;863;-81
2022/05/17 01:17:02;;;;;;;14.73;13.23;;;;;;;;;;527627;28;1617;-81
2022/05/17 01:17:17;;;;;;;14.20;12.85;;;;;;;;;;528429;28;1006;-81
2022/05/17 01:17:37;;;;;;;15.07;13.47;;;;;;;;;;528302;28;863;-82
2022/05/17 01:17:53;;;;;;;15.52;13.85;;;;;;;;;;528539;28;958;-82
2022/05/17 01:18:09;;;;;;;14.80;13.27;;;;;;;;;;526772;28;1391;-82
2022/05/17 01:18:25;;;;;;;14.20;12.80;;;;;;;;;;528301;28;868;-81
2022/05/17 01:18:42;;;;;;;14.30;12.80;;;;;;;;;;530117;27;1451;-81
2022/05/17 01:18:58;;;;;;;14.35;12.88;;;;;;;;;;530602;27;1013;-81
2022/05/17 01:19:13;;;;;;;14.38;12.95;;;;;;;;;;530284;27;1362;-81
2022/05/17 01:19:29;;;;;;;14.23;12.68;;;;;;;;;;530576;27;1448;-81
2022/05/17 01:19:45;;;;;;;13.63;12.30;;;;;;;;;;530336;27;1054;-81
2022/05/17 01:20:05;;;;;;;13.88;12.48;;;;;;;;;;530222;27;1749;-81
2022/05/17 01:20:20;;;;;;;17.92;13.07;;;;;;;;;;529679;27;1569;-81
2022/05/17 01:20:36;;;;;;;16.97;12.90;;;;;;;;;;530338;27;1971;-81
2022/05/17 01:20:56;;;;;;;13.90;12.52;;;;;;;;;;529480;27;1444;-81
2022/05/17 01:21:12;;;;;;;14.13;12.63;;;;;;;;;;527605;28;1401;-81
2022/05/17 01:21:28;;;;;;;14.27;12.77;;;;;;;;;;525842;28;1570;-81
2022/05/17 01:21:43;;;;;;;13.80;12.40;;;;;;;;;;526302;28;978;-82
2022/05/17 01:21:59;;;;;;;13.63;12.23;;;;;;;;;;524286;28;1222;-82
2022/05/17 01:22:14;;;;;;;14.07;12.50;;;;;;;;;;524183;28;1539;-81
2022/05/17 01:22:30;;;;;;;14.63;13.00;;;;;;;;;;524333;28;924;-81
2022/05/17 01:22:45;;;;;;;14.65;13.13;;;;;;;;;;525257;28;835;-81
2022/05/17 01:23:01;;;;;;;14.17;12.73;;;;;;;;;;524259;28;844;-81
2022/05/17 01:23:16;;;;;;;14.05;12.70;;;;;;;;;;524447;28;876;-81
2022/05/17 01:23:31;;;;;;;14.37;13.00;;;;;;;;;;526090;28;731;-81
2022/05/17 01:23:47;;;;;;;15.38;13.55;;;;;;;;;;526443;28;1313;-81
2022/05/17 01:24:02;;;;;;;16.00;13.53;;;;;;;;;;525869;28;1601;-81
2022/05/17 01:24:18;;;;;;;15.55;13.10;;;;;;;;;;526370;28;1002;-81
2022/05/17 01:24:34;;;;;;;16.37;13.00;;;;;;;;;;525599;28;1887;-81
2022/05/17 01:24:49;;;;;;;16.17;12.70;;;;;;;;;;527151;28;1004;-81
2022/05/17 01:25:05;;;;;;;14.63;12.50;;;;;;;;;;530601;27;775;-81
2022/05/17 01:25:23;;;;;;;13.75;12.35;;;;;;;;;;530087;27;2126;-81
2022/05/17 01:25:40;;;;;;;14.20;12.80;;;;;;;;;;530021;27;1430;-81
2022/05/17 01:25:56;;;;;;;14.50;13.00;;;;;;;;;;530632;27;1005;-81
2022/05/17 01:26:17;;;;;;;14.57;13.10;;;;;;;;;;530373;27;1642;-81
2022/05/17 01:26:35;;;;;;;14.05;12.55;;;;;;;;;;528312;27;1550;-81
2022/05/17 01:27:03;;;;;;;13.50;12.20;;;;;;;;;;529548;27;891;-81
2022/05/17 01:27:28;;;;;;;13.95;12.65;;;;;;;;;;528384;28;1195;-81
2022/05/17 01:27:51;;;;;;;13.02;11.73;;;;;;;;;;527780;28;1533;-81
2022/05/17 01:28:18;;;;;;;13.90;12.38;;;;;;;;;;527632;28;1368;-81
2022/05/17 01:28:36;;;;;;;13.63;12.23;;;;;;;;;;529046;27;1409;-82
2022/05/17 01:28:52;;;;;;;16.02;12.40;;;;;;;;;;528338;28;1605;-81
2022/05/17 01:29:08;;;;;;;15.27;12.50;;;;;;;;;;526228;28;1697;-81
2022/05/17 01:29:23;;;;;;;14.32;12.80;;;;;;;;;;528463;28;1037;-81
2022/05/17 01:29:44;;;;;;;14.17;12.77;;;;;;;;;;527126;28;1180;-81
2022/05/17 01:29:59;;;;;;;13.45;12.05;;;;;;;;;;526287;28;1094;-81
2022/05/17 01:30:18;;;;;;;15.05;12.45;;;;;;;;;;527685;28;1747;-81
2022/05/17 01:30:34;;;;;;;14.43;12.35;;;;;;;;;;526076;28;1368;-81
2022/05/17 01:30:49;;;;;;;13.97;12.60;;;;;;;;;;526034;28;1127;-82
2022/05/17 01:31:05;;;;;;;14.27;12.70;;;;;;;;;;527813;28;896;-82
2022/05/17 01:31:21;;;;;;;15.20;12.73;;;;;;;;;;525635;28;1618;-82
2022/05/17 01:31:38;;;;;;;14.57;12.83;;;;;;;;;;527794;28;1415;-81
2022/05/17 01:31:53;;;;;;;14.15;12.65;;;;;;;;;;528158;28;851;-81
2022/05/17 01:32:11;;;;;;;14.10;12.70;;;;;;;;;;525910;28;1593;-81
2022/05/17 01:32:27;;;;;;;13.90;12.50;;;;;;;;;;523779;28;1673;-82
2022/05/17 01:32:42;;;;;;;13.33;11.93;;;;;;;;;;524977;28;1690;-82
2022/05/17 01:32:57;;;;;;;13.50;12.10;;;;;;;;;;526277;28;1167;-82
2022/05/17 01:33:14;;;;;;;13.30;12.00;;;;;;;;;;526248;28;1650;-81
2022/05/17 01:33:32;;;;;;;13.55;12.25;;;;;;;;;;528147;28;1421;-81
2022/05/17 01:33:48;;;;;;;13.82;12.43;;;;;;;;;;525596;28;1451;-81
2022/05/17 01:34:10;;;;;;;13.63;12.27;;;;;;;;;;526040;28;1434;-81
2022/05/17 01:34:26;;;;;;;13.40;12.20;;;;;;;;;;528048;28;914;-81
2022/05/17 01:34:43;;;;;;;12.97;11.73;;;;;;;;;;528066;28;1604;-81
2022/05/17 01:34:59;;;;;;;12.93;11.68;;;;;;;;;;530401;27;828;-81
2022/05/17 01:35:14;;;;;;;13.30;12.00;;;;;;;;;;530264;27;1510;-81
2022/05/17 01:35:29;;;;;;;13.07;11.77;;;;;;;;;;528359;28;1165;-81
2022/05/17 01:35:45;;;;;;;13.33;11.93;;;;;;;;;;526753;28;1952;-81
2022/05/17 01:36:02;;;;;;;13.17;11.90;;;;;;;;;;525958;28;1473;-81
2022/05/17 01:36:21;;;;;;;12.60;11.50;;;;;;;;;;525926;28;1353;-81
2022/05/17 01:36:38;;;;;;;13.63;12.30;;;;;;;;;;525852;28;1475;-81
2022/05/17 01:36:53;;;;;;;13.90;12.50;;;;;;;;;;526372;28;919;-81
2022/05/17 01:37:11;;;;;;;13.68;12.27;;;;;;;;;;523521;28;1568;-81
2022/05/17 01:37:26;;;;;;;15.40;12.35;;;;;;;;;;525481;28;1491;-81
2022/05/17 01:37:41;;;;;;;13.90;12.17;;;;;;;;;;524796;28;1523;-81
2022/05/17 01:37:59;;;;;;;13.05;11.80;;;;;;;;;;527585;28;805;-81
2022/05/17 01:38:15;;;;;;;13.30;12.00;;;;;;;;;;525742;28;1406;-81
2022/05/17 01:38:31;;;;;;;13.07;11.83;;;;;;;;;;524126;28;1639;-81
2022/05/17 01:38:50;;;;;;;13.27;11.90;;;;;;;;;;524115;28;1720;-81
2022/05/17 01:39:06;;;;;;;13.35;12.02;;;;;;;;;;524315;28;800;-81
2022/05/17 01:39:22;;;;;;;13.25;11.85;;;;;;;;;;525169;28;1650;-81
2022/05/17 01:39:38;;;;;;;13.23;11.90;;;;;;;;;;527652;28;998;-81
2022/05/17 01:39:53;;;;;;;13.25;11.95;;;;;;;;;;528126;28;1431;-81
2022/05/17 01:40:10;;;;;;;14.17;12.10;;;;;;;;;;526957;28;1889;-81
2022/05/17 01:40:26;;;;;;;15.10;12.15;;;;;;;;;;528340;28;1563;-81
2022/05/17 01:40:41;;;;;;;13.50;12.10;;;;;;;;;;530247;27;1906;-81
2022/05/17 01:40:57;;;;;;;13.02;11.73;;;;;;;;;;530607;27;915;-81
2022/05/17 01:41:13;;;;;;;13.68;11.57;;;;;;;;;;528308;28;1273;-81
2022/05/17 01:41:28;;;;;;;14.83;11.77;;;;;;;;;;528411;28;891;-82
2022/05/17 01:41:43;;;;;;;15.10;11.87;;;;;;;;;;527674;28;1463;-82
2022/05/17 01:41:59;;;;;;;14.75;12.35;;;;;;;;;;527721;28;827;-82
2022/05/17 01:42:15;;;;;;;13.70;12.30;;;;;;;;;;525373;28;1528;-82
2022/05/17 01:42:31;;;;;;;13.65;12.25;;;;;;;;;;528449;28;852;-82
2022/05/17 01:42:46;;;;;;;13.23;12.02;;;;;;;;;;526448;28;1016;-81
2022/05/17 01:43:02;;;;;;;12.80;11.60;;;;;;;;;;526776;28;1567;-81
2022/05/17 01:43:17;;;;;;;13.10;11.80;;;;;;;;;;529450;27;1021;-81
2022/05/17 01:43:33;;;;;;;13.02;11.73;;;;;;;;;;528281;28;1535;-81
2022/05/17 01:43:50;;;;;;;12.47;11.23;;;;;;;;;;526919;28;1391;-81
2022/05/17 01:44:06;;;;;;;12.52;11.35;;;;;;;;;;528547;27;1491;-81
2022/05/17 01:44:23;;;;;;;13.10;11.90;;;;;;;;;;530357;27;939;-81
2022/05/17 01:44:41;;;;;;;13.85;12.55;;;;;;;;;;529866;27;1643;-81
2022/05/17 01:44:56;;;;;;;14.05;12.65;;;;;;;;;;529874;27;1478;-81
2022/05/17 01:45:12;;;;;;;16.27;12.47;;;;;;;;;;530370;27;894;-81
2022/05/17 01:45:27;;;;;;;16.33;12.43;;;;;;;;;;530347;27;934;-81
2022/05/17 01:45:42;;;;;;;13.93;12.40;;;;;;;;;;528138;28;1233;-81
2022/05/17 01:46:07;;;;;;;15.27;12.05;;;;;;;;;;528197;28;811;-81
2022/05/17 01:46:22;;;;;;;13.27;11.50;;;;;;;;;;526229;28;882;-81